Time;durP1;ratioP1;P1;durP2;ratioP2;P2;SDS_P1;SDS_P2;PMS_P1;PMS_P2;Temp;Humidity;BMP_temperature;BMP_pressure;BME280_temperature;BME280_humidity;BME280_pressure;Samples;Min_cycle;Max_cycle;Signal;HPM_P1;HPM_P2
2022/05/20 00:01:36;;;;;;;2.72;1.52;;;282.40;2278.40;;;;;;5029472;28;20029;-58
2022/05/20 00:04:02;;;;;;;2.50;1.42;;;282.20;2278.40;;;;;;5030196;28;20086;-57
2022/05/20 00:06:27;;;;;;;4.20;1.95;;;282.10;2278.40;;;;;;5033468;28;20163;-57
2022/05/20 00:08:54;;;;;;;2.35;1.58;;;282.00;2278.40;;;;;;5033336;28;20033;-58
2022/05/20 00:11:20;;;;;;;2.10;1.50;;;282.10;2278.40;;;;;;5032997;28;20041;-58
2022/05/20 00:13:47;;;;;;;3.28;1.70;;;282.00;2278.40;;;;;;5033441;28;20029;-57
2022/05/20 00:16:13;;;;;;;2.53;1.40;;;282.00;2278.40;;;;;;5032916;28;20112;-57
2022/05/20 00:18:39;;;;;;;2.63;1.80;;;282.00;2278.40;;;;;;5033039;28;20116;-57
2022/05/20 00:21:05;;;;;;;3.50;1.95;;;281.90;2278.40;;;;;;5033158;28;20113;-58
2022/05/20 00:23:32;;;;;;;3.38;2.03;;;281.60;2278.40;;;;;;5032798;28;20035;-57
2022/05/20 00:25:57;;;;;;;5.38;1.50;;;256.90;2252.80;;;;;;5033018;28;20582;-57
2022/05/20 00:28:28;;;;;;;2.97;1.45;;;256.60;2252.80;;;;;;5032890;28;20061;-58
2022/05/20 00:31:05;;;;;;;2.65;1.48;;;256.50;2252.80;;;;;;5032583;28;20048;-57
2022/05/20 00:33:32;;;;;;;2.70;1.55;;;256.60;2252.80;;;;;;5032638;28;20472;-57
2022/05/20 00:35:58;;;;;;;2.33;1.52;;;256.90;2252.80;;;;;;5032737;28;20476;-56
2022/05/20 00:38:24;;;;;;;2.17;1.50;;;256.90;2252.80;;;;;;5032548;28;20027;-57
2022/05/20 00:40:52;;;;;;;6.15;2.03;;;256.70;2252.80;;;;;;5032620;28;20026;-57
2022/05/20 00:43:29;;;;;;;2.95;1.40;;;256.80;2252.80;;;;;;5032797;28;20025;-57
2022/05/20 00:46:00;;;;;;;2.63;1.60;;;256.80;2252.80;;;;;;5032815;28;20372;-57
2022/05/20 00:48:28;;;;;;;2.65;1.40;;;256.70;2252.80;;;;;;5032543;28;20024;-57
2022/05/20 00:51:03;;;;;;;2.80;1.60;;;256.70;2252.80;;;;;;5032231;28;20060;-57
2022/05/20 00:53:40;;;;;;;3.00;1.60;;;256.60;2252.80;;;;;;5032325;28;20095;-57
2022/05/20 00:56:10;;;;;;;2.40;1.30;;;256.50;2252.80;;;;;;5032290;28;20029;-57
2022/05/20 00:58:35;;;;;;;2.65;1.33;;;256.50;2252.80;;;;;;5032705;28;20030;-57
2022/05/20 01:01:03;;;;;;;1.50;1.17;;;256.40;2252.80;;;;;;5032051;28;20498;-57
2022/05/20 01:03:30;;;;;;;3.08;1.55;;;256.30;2252.80;;;;;;5032398;28;20018;-57
2022/05/20 01:05:57;;;;;;;3.03;1.70;;;256.40;2252.80;;;;;;5032438;28;20033;-57
2022/05/20 01:08:26;;;;;;;3.95;1.63;;;256.20;2252.80;;;;;;5032113;28;20033;-57
2022/05/20 01:10:52;;;;;;;2.72;1.27;;;256.30;2252.80;;;;;;5031848;28;20065;-57
2022/05/20 01:13:19;;;;;;;3.00;1.85;;;256.00;2252.80;;;;;;5032300;28;20032;-57
2022/05/20 01:15:46;;;;;;;7.97;1.70;;;256.00;2252.80;;;;;;5030939;28;20034;-57
2022/05/20 01:18:14;;;;;;;2.45;1.58;;;256.00;2252.80;;;;;;5032006;28;20034;-57
2022/05/20 01:20:45;;;;;;;2.25;1.52;;;231.10;2252.80;;;;;;5032203;28;20035;-57
2022/05/20 01:23:14;;;;;;;2.53;1.50;;;231.10;2252.80;;;;;;5031742;28;20029;-58
2022/05/20 01:25:47;;;;;;;2.78;1.63;;;231.30;2252.80;;;;;;5031670;28;20050;-57
2022/05/20 01:28:13;;;;;;;1.45;0.93;;;231.20;2252.80;;;;;;5031651;28;20041;-57
2022/05/20 01:30:45;;;;;;;3.20;1.67;;;231.30;2252.80;;;;;;5031787;28;20084;-57
2022/05/20 01:33:17;;;;;;;2.13;1.27;;;231.30;2252.80;;;;;;5031497;28;20022;-57
2022/05/20 01:35:44;;;;;;;1.67;1.00;;;231.30;2252.80;;;;;;5031604;28;20375;-57
2022/05/20 01:38:11;;;;;;;2.13;1.40;;;231.20;2252.80;;;;;;5031496;28;20379;-57
2022/05/20 01:40:45;;;;;;;2.38;1.38;;;231.10;2252.80;;;;;;5031923;28;20445;-56
2022/05/20 01:43:39;;;;;;;2.35;1.55;;;230.80;2252.80;;;;;;5031382;28;20033;-57
2022/05/20 01:46:20;;;;;;;3.13;1.88;;;230.60;2252.80;;;;;;5031537;28;20025;-57
2022/05/20 01:49:14;;;;;;;6.53;1.98;;;230.80;2252.80;;;;;;5031586;28;20375;-56
2022/05/20 01:52:00;;;;;;;2.33;1.52;;;231.00;2252.80;;;;;;5031568;28;20494;-56
2022/05/20 01:54:47;;;;;;;2.97;1.45;;;231.00;2252.80;;;;;;5031153;28;20529;-57
2022/05/20 01:57:34;;;;;;;2.03;1.08;;;231.20;2252.80;;;;;;5031174;28;20029;-56
2022/05/20 02:00:25;;;;;;;2.55;1.30;;;231.20;2252.80;;;;;;5031357;28;20025;-58
2022/05/20 02:03:12;;;;;;;2.63;1.15;;;231.10;2252.80;;;;;;5030881;28;20031;-57
2022/05/20 02:06:03;;;;;;;1.73;1.35;;;231.10;2252.80;;;;;;5031374;28;20596;-57
2022/05/20 02:08:37;;;;;;;2.38;1.15;;;231.10;2252.80;;;;;;5031111;28;20029;-57
2022/05/20 02:11:20;;;;;;;2.88;1.58;;;231.20;2252.80;;;;;;5013376;28;20487;-57
2022/05/20 02:13:53;;;;;;;3.50;1.55;;;231.20;2252.80;;;;;;5031202;28;20534;-56
2022/05/20 02:16:27;;;;;;;3.25;1.73;;;230.80;2252.80;;;;;;5031056;28;20041;-57
2022/05/20 02:19:07;;;;;;;3.58;1.30;;;230.80;2252.80;;;;;;5030842;28;20025;-57
2022/05/20 02:21:38;;;;;;;3.03;1.38;;;230.80;2252.80;;;;;;5030729;28;20056;-56
2022/05/20 02:24:08;;;;;;;1.67;1.15;;;230.70;2252.80;;;;;;5030287;28;20028;-57
2022/05/20 02:26:42;;;;;;;3.35;1.30;;;230.80;2252.80;;;;;;5030281;28;20487;-56
2022/05/20 02:29:09;;;;;;;;;;;231.00;2252.80;;;;;;5031145;28;20424;-57
2022/05/20 02:31:46;;;;;;;4.05;1.27;;;230.80;2252.80;;;;;;5030025;28;19916;-57
2022/05/20 02:34:12;;;;;;;1.80;1.30;;;230.80;2252.80;;;;;;5030580;28;20026;-57
2022/05/20 02:36:38;;;;;;;2.25;1.27;;;230.80;2252.80;;;;;;5030665;28;20459;-57
2022/05/20 02:39:14;;;;;;;3.08;1.25;;;230.90;2252.80;;;;;;5030345;28;20097;-57
2022/05/20 02:41:44;;;;;;;2.15;1.40;;;230.90;2252.80;;;;;;5030488;28;20033;-58
2022/05/20 02:44:10;;;;;;;1.25;1.05;;;230.90;2252.80;;;;;;5030220;28;20049;-57
2022/05/20 02:46:37;;;;;;;2.63;1.13;;;230.90;2252.80;;;;;;5030398;28;20049;-57
2022/05/20 02:49:03;;;;;;;2.45;1.30;;;230.90;2252.80;;;;;;5012656;28;20032;-57
2022/05/20 02:51:29;;;;;;;2.92;1.15;;;230.90;2252.80;;;;;;5030399;28;20033;-57
2022/05/20 02:53:55;;;;;;;3.33;1.30;;;230.90;2252.80;;;;;;5030394;28;20030;-57
2022/05/20 02:56:20;;;;;;;1.83;1.00;;;230.80;2252.80;;;;;;5030385;28;20025;-58
2022/05/20 03:04:15;;;;;;;1.63;1.05;;;230.80;2252.80;;;;;;5030365;28;20564;-57
2022/05/20 03:06:47;;;;;;;2.17;1.20;;;230.70;2252.80;;;;;;5030362;28;20021;-57
2022/05/20 03:09:15;;;;;;;2.97;1.42;;;230.70;2252.80;;;;;;5030019;28;20069;-56
2022/05/20 03:11:41;;;;;;;2.45;1.42;;;230.80;2252.80;;;;;;5029930;28;20476;-57
2022/05/20 03:14:09;;;;;;;4.05;1.80;;;230.70;2252.80;;;;;;5030237;28;20021;-57
2022/05/20 03:16:37;;;;;;;2.97;1.40;;;230.80;2252.80;;;;;;5030019;28;20052;-57
2022/05/20 03:19:04;;;;;;;3.10;1.92;;;230.80;2252.80;;;;;;5029787;28;20160;-56
2022/05/20 03:21:30;;;;;;;2.30;1.45;;;230.90;2252.80;;;;;;5030007;28;20044;-57
2022/05/20 03:23:56;;;;;;;2.13;1.00;;;231.00;2252.80;;;;;;5029919;28;20479;-56
2022/05/20 03:26:22;;;;;;;2.83;1.40;;;230.90;2252.80;;;;;;5029935;28;20076;-57
2022/05/20 03:28:47;;;;;;;1.67;1.13;;;230.90;2252.80;;;;;;5030210;28;20018;-57
2022/05/20 03:31:13;;;;;;;2.80;1.30;;;230.90;2252.80;;;;;;5029794;28;20037;-57
2022/05/20 03:33:41;;;;;;;1.70;1.05;;;230.90;2252.80;;;;;;5029796;28;20021;-56
2022/05/20 03:36:07;;;;;;;3.00;1.38;;;230.90;2252.80;;;;;;5029778;28;20092;-57
2022/05/20 03:38:34;;;;;;;2.83;1.40;;;231.00;2252.80;;;;;;5029773;28;20026;-57
2022/05/20 03:40:59;;;;;;;2.25;1.50;;;231.00;2252.80;;;;;;5033764;28;20439;-57
2022/05/20 03:43:26;;;;;;;2.08;1.20;;;231.10;2252.80;;;;;;5033966;28;20025;-57
2022/05/20 03:45:53;;;;;;;3.40;1.45;;;231.10;2252.80;;;;;;5033668;28;20034;-57
2022/05/20 03:48:19;;;;;;;1.60;1.10;;;231.20;2252.80;;;;;;5033653;28;20116;-57
2022/05/20 03:50:45;;;;;;;3.33;1.50;;;231.20;2252.80;;;;;;5033981;28;20033;-57
2022/05/20 03:53:10;;;;;;;1.98;1.17;;;231.30;2252.80;;;;;;5033545;28;20532;-57
2022/05/20 03:55:36;;;;;;;2.78;1.75;;;256.00;2252.80;;;;;;5033666;28;20068;-57
2022/05/20 03:58:02;;;;;;;3.63;1.30;;;256.10;2252.80;;;;;;5033308;28;20035;-57
2022/05/20 04:00:28;;;;;;;3.28;1.50;;;256.20;2252.80;;;;;;5033703;28;20029;-56
2022/05/20 04:02:53;;;;;;;3.97;1.30;;;256.30;2252.80;;;;;;5033196;28;20480;-57
2022/05/20 04:05:20;;;;;;;2.40;1.27;;;256.30;2252.80;;;;;;5033776;28;20615;-56
2022/05/20 04:07:45;;;;;;;1.33;0.98;;;256.40;2252.80;;;;;;5033745;28;20032;-57
2022/05/20 04:10:11;;;;;;;1.60;1.02;;;256.50;2252.80;;;;;;5033575;28;20025;-57
2022/05/20 04:12:43;;;;;;;2.60;1.35;;;256.60;2252.80;;;;;;5033417;28;20041;-57
2022/05/20 04:15:14;;;;;;;2.15;1.50;;;256.80;2252.80;;;;;;5033391;28;20021;-56
2022/05/20 04:17:40;;;;;;;2.53;1.40;;;256.80;2252.80;;;;;;5032879;28;20029;-57
2022/05/20 04:20:07;;;;;;;4.13;1.60;;;256.90;2252.80;;;;;;5033123;28;20026;-56
2022/05/20 04:22:39;;;;;;;2.53;1.40;;;281.60;2278.40;;;;;;5032961;28;20026;-57
2022/05/20 04:25:05;;;;;;;2.35;1.23;;;281.60;2278.40;;;;;;5032752;28;20085;-57
2022/05/20 04:27:31;;;;;;;1.65;1.00;;;281.70;2278.40;;;;;;5033031;28;20369;-57
2022/05/20 04:29:57;;;;;;;3.83;1.40;;;281.80;2278.40;;;;;;5033126;28;20026;-57
2022/05/20 04:32:23;;;;;;;2.80;1.30;;;282.00;2278.40;;;;;;5032545;28;20399;-56
2022/05/20 04:34:50;;;;;;;3.10;1.25;;;282.10;2278.40;;;;;;5032904;28;20022;-57
2022/05/20 04:37:16;;;;;;;2.05;1.40;;;282.20;2278.40;;;;;;5033153;28;20022;-57
2022/05/20 04:39:42;;;;;;;2.10;1.50;;;307.30;2304.00;;;;;;5032586;28;20017;-57
2022/05/20 04:47:41;;;;;;;2.58;1.85;;;538.50;1536.00;;;;;;5032560;28;20084;-57
2022/05/20 04:50:08;;;;;;;3.67;2.22;;;665.80;1228.80;;;;;;5032426;28;20025;-58
2022/05/20 04:52:34;;;;;;;2.95;2.22;;;717.70;1075.20;;;;;;5032264;28;20037;-57
2022/05/20 04:55:00;;;;;;;3.00;2.55;;;768.90;998.40;;;;;;5032354;28;20032;-58
2022/05/20 04:57:33;;;;;;;3.53;2.10;;;794.50;947.20;;;;;;5032615;28;20087;-59
2022/05/20 05:00:01;;;;;;;;;;;819.90;921.60;;;;;;5032840;28;20452;-58
2022/05/20 05:02:27;;;;;;;3.58;2.70;;;845.00;896.00;;;;;;5032373;28;19905;-57
2022/05/20 05:04:53;;;;;;;3.00;2.70;;;870.60;870.40;;;;;;5032176;28;20049;-58
2022/05/20 05:07:19;;;;;;;4.40;2.60;;;871.30;844.80;;;;;;5032385;28;20029;-58
2022/05/20 05:09:45;;;;;;;3.42;2.90;;;896.60;793.60;;;;;;5031281;28;20438;-58
2022/05/20 05:12:12;;;;;;;3.10;2.72;;;922.00;819.20;;;;;;5031869;28;20041;-59
2022/05/20 05:14:44;;;;;;;3.75;3.33;;;896.80;819.20;;;;;;5032489;28;20025;-59
2022/05/20 05:17:12;;;;;;;3.90;3.05;;;922.00;819.20;;;;;;5031968;28;20030;-59
2022/05/20 05:19:39;;;;;;;3.40;3.05;;;921.80;819.20;;;;;;5032168;28;20433;-59
2022/05/20 05:22:06;;;;;;;2.63;2.00;;;947.30;793.60;;;;;;5031893;28;20045;-59
2022/05/20 05:24:33;;;;;;;4.35;2.60;;;896.90;793.60;;;;;;5031620;28;20041;-59
2022/05/20 05:26:59;;;;;;;3.00;2.55;;;870.80;870.40;;;;;;5031806;28;20025;-59
2022/05/20 05:29:25;;;;;;;4.20;2.88;;;844.90;896.00;;;;;;5031852;28;20489;-59
2022/05/20 05:31:51;;;;;;;3.95;3.50;;;845.30;896.00;;;;;;5031801;28;20129;-59
2022/05/20 05:34:17;;;;;;;4.40;3.88;;;896.20;844.80;;;;;;5031853;28;20357;-59
2022/05/20 05:36:42;;;;;;;4.57;3.85;;;947.30;793.60;;;;;;5031739;28;20104;-70
2022/05/20 05:39:08;;;;;;;5.07;4.57;;;947.60;793.60;;;;;;5031664;28;20472;-71
2022/05/20 05:41:34;;;;;;;4.70;4.30;;;973.20;768.00;;;;;;5031514;28;20033;-70
2022/05/20 05:44:03;;;;;;;5.65;4.25;;;973.70;742.40;;;;;;5031198;28;20117;-62
2022/05/20 05:46:30;;;;;;;4.95;4.55;;;1024.10;716.80;;;;;;5031454;28;20108;-69
2022/05/20 05:48:57;;;;;;;4.90;4.50;;;999.00;742.40;;;;;;5031563;28;20063;-69
2022/05/20 05:51:25;;;;;;;5.82;5.28;;;1049.80;742.40;;;;;;5031285;28;20038;-69
2022/05/20 05:53:51;;;;;;;4.95;4.55;;;1075.90;691.20;;;;;;5030995;28;20427;-67
2022/05/20 05:56:17;;;;;;;4.70;4.03;;;1075.40;691.20;;;;;;5031506;28;20033;-69
2022/05/20 05:58:42;;;;;;;4.18;3.78;;;1049.60;716.80;;;;;;5031054;28;20061;-68
2022/05/20 06:01:09;;;;;;;4.03;3.65;;;998.70;768.00;;;;;;5031350;28;20029;-69
2022/05/20 06:03:35;;;;;;;5.90;5.40;;;999.30;742.40;;;;;;5029831;28;20041;-70
2022/05/20 06:06:01;;;;;;;5.55;5.15;;;1024.20;742.40;;;;;;5031134;28;20049;-72
2022/05/20 06:08:27;;;;;;;8.38;7.68;;;1050.00;716.80;;;;;;5031329;28;20472;-72
2022/05/20 06:10:52;;;;;;;7.22;6.63;;;1075.30;691.20;;;;;;5030951;28;20029;-73
2022/05/20 06:13:27;;;;;;;6.63;6.22;;;1101.70;665.60;;;;;;5031161;28;20475;-66
2022/05/20 06:15:56;;;;;;;6.55;5.95;;;1127.00;665.60;;;;;;5030755;28;20109;-72
2022/05/20 06:18:22;;;;;;;6.90;6.50;;;1101.10;716.80;;;;;;5030733;28;20034;-72
2022/05/20 06:20:49;;;;;;;7.20;6.70;;;1101.10;716.80;;;;;;5030887;28;20423;-65
2022/05/20 06:23:15;;;;;;;7.93;7.32;;;1050.10;742.40;;;;;;5030605;28;20053;-71
2022/05/20 06:25:41;;;;;;;7.90;7.25;;;1101.00;716.80;;;;;;5030334;28;20496;-71
2022/05/20 06:28:11;;;;;;;6.95;6.55;;;1050.00;742.40;;;;;;5030824;28;20116;-72
2022/05/20 06:30:38;;;;;;;7.97;7.40;;;1126.60;691.20;;;;;;5030757;28;20101;-71
2022/05/20 06:33:04;;;;;;;8.13;7.53;;;1152.70;640.00;;;;;;5030405;28;20526;-70
2022/05/20 06:41:00;;;;;;;9.45;8.75;;;1203.20;640.00;;;;;;5030657;28;20447;-67
2022/05/20 06:43:27;;;;;;;8.20;7.60;;;1177.60;640.00;;;;;;5030532;28;20049;-72
2022/05/20 06:45:56;;;;;;;8.55;7.75;;;1126.90;665.60;;;;;;5030251;28;20026;-74
2022/05/20 06:48:22;;;;;;;10.40;9.68;;;1126.60;665.60;;;;;;5030355;28;20022;-71
2022/05/20 06:50:48;;;;;;;9.32;8.40;;;1127.30;665.60;;;;;;5030304;28;20030;-69
2022/05/20 06:53:14;;;;;;;9.95;9.05;;;1178.50;588.80;;;;;;5030089;28;20033;-72
2022/05/20 06:55:40;;;;;;;9.93;9.23;;;1203.70;614.40;;;;;;5030192;28;20022;-64
2022/05/20 06:58:06;;;;;;;10.48;9.85;;;1204.10;588.80;;;;;;5030156;28;20021;-72
2022/05/20 07:00:32;;;;;;;10.63;9.93;;;1229.30;614.40;;;;;;5030020;28;20029;-71
2022/05/20 07:02:58;;;;;;;9.65;8.95;;;1126.60;691.20;;;;;;5030244;28;20033;-70
2022/05/20 07:05:24;;;;;;;10.55;9.75;;;1075.60;716.80;;;;;;5030036;28;20097;-71
2022/05/20 07:07:50;;;;;;;9.10;8.50;;;1126.60;691.20;;;;;;5029937;28;20037;-68
2022/05/20 07:10:16;;;;;;;9.73;9.05;;;1050.20;742.40;;;;;;5030424;28;20460;-71
2022/05/20 07:12:42;;;;;;;8.43;7.72;;;1101.50;691.20;;;;;;5029737;28;20124;-70
2022/05/20 07:15:10;;;;;;;9.43;8.75;;;1075.60;716.80;;;;;;5030172;28;20061;-72
2022/05/20 07:17:37;;;;;;;8.88;8.18;;;1050.10;768.00;;;;;;5029866;28;20029;-71
2022/05/20 07:20:05;;;;;;;9.95;9.25;;;1100.90;716.80;;;;;;5029809;28;20025;-70
2022/05/20 07:22:30;;;;;;;9.52;8.82;;;1075.60;742.40;;;;;;5029785;28;20018;-69
2022/05/20 07:24:56;;;;;;;8.82;8.02;;;1126.80;716.80;;;;;;5029781;28;20133;-71
2022/05/20 07:27:22;;;;;;;9.55;8.95;;;1101.10;742.40;;;;;;5029815;28;20422;-70
2022/05/20 07:29:48;;;;;;;9.85;8.95;;;1075.40;768.00;;;;;;5029917;28;20064;-71
2022/05/20 07:32:14;;;;;;;9.90;9.05;;;1049.70;819.20;;;;;;5029742;28;20053;-70
2022/05/20 07:34:40;;;;;;;9.57;8.93;;;1075.70;768.00;;;;;;5029638;28;20325;-68
2022/05/20 07:37:06;;;;;;;9.52;8.63;;;1152.20;716.80;;;;;;5029783;28;20026;-72
2022/05/20 07:39:32;;;;;;;9.25;8.75;;;1127.10;768.00;;;;;;5029522;28;20428;-71
2022/05/20 07:41:59;;;;;;;8.05;7.55;;;1126.40;768.00;;;;;;5029785;28;20057;-72
2022/05/20 07:44:26;;;;;;;8.70;8.07;;;1126.50;742.40;;;;;;5029835;28;20021;-71
2022/05/20 07:46:51;;;;;;;8.60;7.93;;;1050.20;793.60;;;;;;5029696;28;20092;-70
2022/05/20 07:49:17;;;;;;;7.68;6.97;;;1049.80;819.20;;;;;;5029852;28;20353;-72
2022/05/20 07:51:46;;;;;;;8.55;7.80;;;1076.10;742.40;;;;;;5029409;28;20045;-72
2022/05/20 07:54:15;;;;;;;9.15;8.38;;;1050.00;819.20;;;;;;5029360;28;20022;-72
2022/05/20 07:56:49;;;;;;;7.75;7.25;;;1024.90;819.20;;;;;;5029433;28;20037;-71
2022/05/20 07:59:28;;;;;;;7.15;6.68;;;1076.10;768.00;;;;;;5029590;28;20076;-71
2022/05/20 08:01:56;;;;;;;9.10;8.15;;;1101.60;768.00;;;;;;5029405;28;20567;-71
2022/05/20 08:07:10;;;;;;;8.35;7.75;;;1050.30;793.60;;;;;;5029976;28;20980;-72
2022/05/20 08:09:36;;;;;;;8.32;7.80;;;1076.10;716.80;;;;;;5029499;28;20017;-71
2022/05/20 08:12:02;;;;;;;7.68;7.28;;;1075.70;716.80;;;;;;5029253;28;20087;-71
2022/05/20 08:14:28;;;;;;;9.00;8.40;;;1050.50;716.80;;;;;;5029597;28;20049;-72
2022/05/20 08:16:57;;;;;;;9.10;8.50;;;1075.20;691.20;;;;;;5029259;28;20479;-72
2022/05/20 08:19:23;;;;;;;8.45;6.45;;;998.60;768.00;;;;;;5029113;28;20018;-70
2022/05/20 08:21:49;;;;;;;5.53;4.50;;;922.00;844.80;;;;;;5029637;28;20029;-70
2022/05/20 08:24:15;;;;;;;5.60;4.30;;;871.30;870.40;;;;;;5028953;28;20518;-72
2022/05/20 08:26:40;;;;;;;4.60;3.85;;;870.70;870.40;;;;;;5032217;28;20037;-68
2022/05/20 08:29:06;;;;;;;6.05;3.70;;;819.90;896.00;;;;;;5032969;28;20029;-72
2022/05/20 08:31:33;;;;;;;4.78;3.25;;;794.00;998.40;;;;;;5032732;28;20043;-70
2022/05/20 08:34:00;;;;;;;4.10;3.70;;;793.80;972.80;;;;;;5032748;28;20025;-72
2022/05/20 08:36:26;;;;;;;4.35;3.30;;;768.90;947.20;;;;;;5033219;28;20105;-67
2022/05/20 08:38:52;;;;;;;4.38;2.95;;;768.70;947.20;;;;;;5032586;28;20484;-71
2022/05/20 08:41:27;;;;;;;7.28;3.08;;;768.90;972.80;;;;;;5033004;28;20025;-71
2022/05/20 08:43:53;;;;;;;3.90;3.00;;;768.70;947.20;;;;;;5032598;28;20025;-71
2022/05/20 08:46:21;;;;;;;3.85;2.67;;;768.50;921.60;;;;;;5032854;28;20022;-65
2022/05/20 08:48:53;;;;;;;4.13;2.90;;;768.90;921.60;;;;;;5032774;28;20052;-71
2022/05/20 08:51:21;;;;;;;3.78;2.90;;;768.50;947.20;;;;;;5032715;28;20037;-70
2022/05/20 08:53:48;;;;;;;3.60;2.80;;;768.40;947.20;;;;;;5032709;28;20025;-71
2022/05/20 08:56:19;;;;;;;3.58;2.70;;;768.60;921.60;;;;;;5014100;28;20052;-71
2022/05/20 08:59:11;;;;;;;3.30;2.83;;;768.30;921.60;;;;;;5032622;28;20108;-70
2022/05/20 09:01:45;;;;;;;5.28;2.95;;;768.60;921.60;;;;;;5032653;28;20029;-70
2022/05/20 09:04:14;;;;;;;3.10;2.50;;;768.70;947.20;;;;;;5032166;28;20425;-70
2022/05/20 09:07:11;;;;;;;4.25;2.50;;;768.10;921.60;;;;;;5032211;28;20025;-66
2022/05/20 09:09:50;;;;;;;3.55;2.10;;;768.10;947.20;;;;;;5032289;28;20112;-71
2022/05/20 09:12:28;;;;;;;5.63;2.65;;;768.50;947.20;;;;;;5032254;28;20502;-71
2022/05/20 09:18:00;;;;;;;3.80;2.80;;;768.90;896.00;;;;;;5032179;28;20121;-71
2022/05/20 09:20:26;;;;;;;3.65;2.22;;;793.70;896.00;;;;;;5032050;28;20033;-71
2022/05/20 09:22:58;;;;;;;4.25;2.60;;;768.60;896.00;;;;;;5031903;28;20025;-70
2022/05/20 09:25:27;;;;;;;3.63;2.55;;;743.30;921.60;;;;;;5031727;28;20145;-70
2022/05/20 09:28:13;;;;;;;4.10;3.10;;;743.00;947.20;;;;;;5031843;28;20365;-71
2022/05/20 09:30:41;;;;;;;3.22;2.80;;;743.10;947.20;;;;;;5031922;28;20035;-72
2022/05/20 09:33:14;;;;;;;4.05;2.47;;;743.10;947.20;;;;;;5031792;28;20120;-73
2022/05/20 09:35:45;;;;;;;3.65;2.53;;;743.00;947.20;;;;;;5031678;28;20036;-66
2022/05/20 09:38:29;;;;;;;3.95;2.25;;;768.10;947.20;;;;;;5030588;28;20063;-70
2022/05/20 09:40:54;;;;;;;;;;;768.30;896.00;;;;;;5031904;28;20025;-69
2022/05/20 09:43:26;;;;;;;4.65;2.30;;;768.60;921.60;;;;;;5031481;28;19959;-63
2022/05/20 09:45:52;;;;;;;3.08;2.20;;;768.30;896.00;;;;;;5031498;28;20045;-70
2022/05/20 09:48:39;;;;;;;3.47;2.25;;;768.30;921.60;;;;;;5031671;28;20072;-68
2022/05/20 09:51:13;;;;;;;3.28;2.10;;;768.60;896.00;;;;;;5031390;28;20502;-70
2022/05/20 09:53:43;;;;;;;3.33;2.40;;;768.90;921.60;;;;;;5031369;28;20108;-70
2022/05/20 09:56:29;;;;;;;3.28;2.30;;;768.60;870.40;;;;;;5031454;28;20033;-69
2022/05/20 09:59:19;;;;;;;2.40;2.05;;;793.60;921.60;;;;;;5031037;28;20024;-71
2022/05/20 10:01:58;;;;;;;3.63;2.22;;;793.60;896.00;;;;;;5031192;28;20391;-68
2022/05/20 10:04:49;;;;;;;3.47;2.38;;;793.60;921.60;;;;;;5030919;28;20030;-71
2022/05/20 10:07:25;;;;;;;3.25;2.33;;;793.70;870.40;;;;;;5031157;28;20030;-73
2022/05/20 10:10:15;;;;;;;3.20;2.10;;;768.80;870.40;;;;;;5031018;28;20025;-70
2022/05/20 10:12:45;;;;;;;2.70;2.22;;;768.70;844.80;;;;;;5030751;28;20035;-70
2022/05/20 10:15:27;;;;;;;3.30;2.10;;;768.70;844.80;;;;;;5012805;28;20401;-66
2022/05/20 10:18:26;;;;;;;2.25;1.98;;;768.30;793.60;;;;;;5030845;28;20471;-70
2022/05/20 10:21:01;;;;;;;2.80;2.10;;;768.40;896.00;;;;;;5030695;28;20029;-70
2022/05/20 10:23:44;;;;;;;3.60;2.50;;;768.40;947.20;;;;;;5030850;28;20083;-70
2022/05/20 10:26:28;;;;;;;;;;;768.60;921.60;;;;;;5031107;28;20575;-71
2022/05/20 10:34:53;;;;;;;3.53;2.45;;;768.10;844.80;;;;;;5030616;28;20088;-70
2022/05/20 10:37:33;;;;;;;3.20;2.50;;;768.10;896.00;;;;;;5030792;28;20029;-68
2022/05/20 10:40:17;;;;;;;3.97;2.30;;;768.10;870.40;;;;;;5030601;28;20502;-71
2022/05/20 10:43:22;;;;;;;3.30;2.40;;;743.00;819.20;;;;;;5030593;28;20372;-70
2022/05/20 10:49:10;;;;;;;3.15;2.15;;;743.00;870.40;;;;;;4931362;29;20035;-73
2022/05/20 10:52:14;;;;;;;2.38;1.80;;;742.90;870.40;;;;;;4931139;29;20043;-74
2022/05/20 10:55:14;;;;;;;3.85;2.45;;;742.90;844.80;;;;;;4874316;29;20523;-73
2022/05/20 10:57:48;;;;;;;3.25;2.25;;;742.90;921.60;;;;;;4801018;29;20054;-64
2022/05/20 11:00:19;;;;;;;4.90;2.50;;;743.00;921.60;;;;;;4800947;29;20599;-71
2022/05/20 11:03:08;;;;;;;6.68;2.33;;;743.00;870.40;;;;;;4801127;29;20071;-72
2022/05/20 11:05:48;;;;;;;3.88;2.10;;;742.90;870.40;;;;;;4800997;29;20049;-70
2022/05/20 11:08:37;;;;;;;3.33;2.25;;;742.80;844.80;;;;;;4800894;29;20046;-73
2022/05/20 11:11:25;;;;;;;2.78;1.80;;;742.80;896.00;;;;;;4800743;29;20035;-71
2022/05/20 11:14:17;;;;;;;2.63;1.77;;;742.80;896.00;;;;;;4800992;29;20069;-67
2022/05/20 11:16:57;;;;;;;2.38;2.03;;;742.70;896.00;;;;;;4800970;29;20419;-73
2022/05/20 11:19:44;;;;;;;3.00;1.98;;;742.70;844.80;;;;;;4800790;29;20632;-71
2022/05/20 11:22:39;;;;;;;3.97;2.13;;;742.60;819.20;;;;;;4812489;29;20094;-64
2022/05/20 11:25:43;;;;;;;2.53;1.83;;;742.70;921.60;;;;;;4817893;29;20518;-73
2022/05/20 11:28:27;;;;;;;2.50;2.10;;;742.80;870.40;;;;;;4800892;29;20103;-73
2022/05/20 11:31:20;;;;;;;3.75;2.08;;;742.50;819.20;;;;;;4824872;29;20485;-74
2022/05/20 11:33:46;;;;;;;3.33;2.10;;;742.50;844.80;;;;;;4862261;29;20033;-74
2022/05/20 11:36:20;;;;;;;2.63;1.83;;;742.50;819.20;;;;;;4911520;29;20036;-72
2022/05/20 11:38:51;;;;;;;3.65;2.22;;;742.70;921.60;;;;;;4911768;29;20076;-73
2022/05/20 11:41:30;;;;;;;2.50;1.83;;;742.60;844.80;;;;;;4911683;29;20115;-73
2022/05/20 11:44:39;;;;;;;2.95;1.90;;;742.70;921.60;;;;;;4911495;29;20520;-71
2022/05/20 11:47:07;;;;;;;4.60;2.65;;;742.80;896.00;;;;;;4907069;29;20076;-71
2022/05/20 11:49:51;;;;;;;3.67;2.63;;;742.80;947.20;;;;;;4911344;29;20072;-73
2022/05/20 11:52:42;;;;;;;3.53;2.17;;;742.70;870.40;;;;;;4911686;29;20183;-73
2022/05/20 11:55:24;;;;;;;4.28;2.28;;;742.80;870.40;;;;;;4911460;29;20519;-72
2022/05/20 11:58:21;;;;;;;4.75;2.13;;;742.90;844.80;;;;;;4911586;29;20175;-73
2022/05/20 12:00:48;;;;;;;3.80;2.17;;;742.90;819.20;;;;;;4902036;29;20478;-72
2022/05/20 12:03:17;;;;;;;2.75;2.25;;;742.80;793.60;;;;;;4933953;29;20047;-72
2022/05/20 12:05:47;;;;;;;3.17;2.20;;;743.00;921.60;;;;;;4933973;29;20036;-71
2022/05/20 12:08:49;;;;;;;6.55;2.10;;;742.80;870.40;;;;;;4933750;29;20075;-72
2022/05/20 12:11:26;;;;;;;4.43;2.20;;;742.80;819.20;;;;;;4933979;29;20043;-72
2022/05/20 12:14:03;;;;;;;4.30;1.95;;;742.80;819.20;;;;;;4933809;29;20059;-72
2022/05/20 12:16:31;;;;;;;2.78;2.08;;;742.80;921.60;;;;;;4933858;29;20031;-73
2022/05/20 12:24:53;;;;;;;5.80;2.15;;;743.00;870.40;;;;;;4933394;29;20536;-73
2022/05/20 12:27:22;;;;;;;3.42;2.03;;;743.00;793.60;;;;;;4934009;29;20097;-66
2022/05/20 12:30:08;;;;;;;3.83;2.20;;;743.00;819.20;;;;;;4933892;29;20062;-72
2022/05/20 12:32:36;;;;;;;5.07;2.15;;;742.90;768.00;;;;;;4933242;29;20035;-73
2022/05/20 12:35:16;;;;;;;3.10;2.00;;;742.80;768.00;;;;;;4933510;29;20487;-72
2022/05/20 12:37:45;;;;;;;2.65;1.88;;;742.80;768.00;;;;;;4974903;28;20034;-72
2022/05/20 12:40:26;;;;;;;3.58;2.00;;;742.50;793.60;;;;;;5012858;28;20056;-72
2022/05/20 12:43:02;;;;;;;2.67;1.98;;;742.70;793.60;;;;;;5012857;28;20022;-72
2022/05/20 12:45:34;;;;;;;3.13;2.35;;;742.70;793.60;;;;;;5012858;28;20380;-72
2022/05/20 12:48:01;;;;;;;3.05;2.28;;;742.80;819.20;;;;;;5012585;28;20054;-72
2022/05/20 12:50:28;;;;;;;3.97;1.90;;;742.90;793.60;;;;;;5012801;28;20030;-72
2022/05/20 12:53:00;;;;;;;4.35;2.30;;;743.00;793.60;;;;;;5012625;28;20491;-73
2022/05/20 12:55:45;;;;;;;3.28;2.10;;;742.90;793.60;;;;;;5012890;28;20392;-72
2022/05/20 12:58:14;;;;;;;2.38;1.98;;;743.00;819.20;;;;;;5012575;28;20030;-67
2022/05/20 13:00:47;;;;;;;3.03;2.15;;;743.10;819.20;;;;;;5012438;28;20033;-64
2022/05/20 13:03:23;;;;;;;2.50;1.85;;;743.10;793.60;;;;;;5012544;28;20064;-72
2022/05/20 13:05:53;;;;;;;3.15;1.98;;;743.10;793.60;;;;;;5012687;28;20103;-66
2022/05/20 13:08:22;;;;;;;2.72;1.98;;;743.10;819.20;;;;;;5012470;28;20029;-66
2022/05/20 13:10:48;;;;;;;2.10;1.65;;;743.10;793.60;;;;;;5012378;28;20025;-72
2022/05/20 13:13:20;;;;;;;2.65;1.95;;;743.10;819.20;;;;;;5012171;28;20033;-71
2022/05/20 13:15:54;;;;;;;3.97;2.05;;;743.10;819.20;;;;;;5012619;28;20494;-72
2022/05/20 13:18:35;;;;;;;4.38;1.90;;;743.00;793.60;;;;;;5012462;28;20160;-72
2022/05/20 13:21:16;;;;;;;3.10;2.10;;;743.00;793.60;;;;;;5012194;28;20393;-71
2022/05/20 13:23:45;;;;;;;3.28;2.10;;;743.00;793.60;;;;;;5012089;28;20376;-72